Terminal Aerodrome Forecast
Issued by NWS

Home | Current Version | Previous Version | Text Only | Print | Product List | Glossary On
Versions: 1 2 3 4 5 6 7 8 9 10 11 12 13
000
FTUS43 KDTX 292005 AAA
TAFYIP
TAF AMD
KYIP 292005Z 2920/3018 06008KT P6SM BKN040 BKN100
      TEMPO 2920/2922 3SM TSRA OVC030CB
     FM300000 04006KT P6SM VCSH SCT050 BKN100
     FM301200 06010KT P6SM FEW040 SCT080 BKN150=

USA.gov is the U.S. government's official web portal to all federal, state and local government web resources and services.